createdAt,value
2019-05-29T00:00:19.827Z,80.14
2019-05-29T00:02:50.595Z,80.40
2019-05-29T00:05:21.356Z,80.59
2019-05-29T00:07:52.134Z,80.41
2019-05-29T00:10:22.891Z,80.12
2019-05-29T00:12:53.663Z,79.31
2019-05-29T00:15:24.431Z,79.53
2019-05-29T00:17:55.205Z,79.06
2019-05-29T00:20:25.975Z,78.79
2019-05-29T00:22:56.812Z,79.80
2019-05-29T00:25:27.619Z,79.19
2019-05-29T00:27:58.411Z,79.44
2019-05-29T00:30:29.178Z,79.31
2019-05-29T00:32:59.932Z,78.15
2019-05-29T00:35:30.707Z,78.51
2019-05-29T00:38:01.469Z,79.00
2019-05-29T00:40:32.241Z,78.45
2019-05-29T00:43:03.004Z,78.07
2019-05-29T00:45:33.784Z,77.80
2019-05-29T00:48:04.544Z,78.09
2019-05-29T00:50:35.571Z,77.74
2019-05-29T00:53:06.358Z,78.06
2019-05-29T00:55:37.134Z,78.84
2019-05-29T00:58:08.809Z,77.56
2019-05-29T01:00:39.584Z,77.76
2019-05-29T01:03:11.552Z,76.75
2019-05-29T01:05:42.448Z,78.03
2019-05-29T01:08:14.453Z,77.49
2019-05-29T01:10:45.326Z,77.80
2019-05-29T01:13:17.203Z,78.25
2019-05-29T01:15:48.185Z,78.95
2019-05-29T01:18:20.010Z,78.74
2019-05-29T01:20:50.816Z,78.54
2019-05-29T01:23:22.441Z,77.97
2019-05-29T01:25:53.661Z,77.66
2019-05-29T01:28:24.422Z,78.75
2019-05-29T01:30:55.198Z,77.51
2019-05-29T01:33:25.982Z,76.16
2019-05-29T01:35:56.756Z,76.82
2019-05-29T01:38:27.682Z,77.31
2019-05-29T01:40:58.507Z,76.50
2019-05-29T01:43:29.271Z,78.26
2019-05-29T01:46:00.044Z,78.38
2019-05-29T01:48:30.811Z,79.15
2019-05-29T01:51:01.689Z,77.27
2019-05-29T01:53:32.465Z,76.38
2019-05-29T01:56:03.246Z,77.40
2019-05-29T01:58:34.001Z,78.39
2019-05-29T02:01:04.776Z,78.47
2019-05-29T02:03:35.537Z,77.24
2019-05-29T02:06:06.308Z,75.93
2019-05-29T02:08:37.067Z,76.23
2019-05-29T02:11:07.842Z,75.81
2019-05-29T02:13:38.625Z,76.48
2019-05-29T02:16:09.392Z,78.28
2019-05-29T02:18:40.156Z,78.26
2019-05-29T02:21:10.937Z,78.32
2019-05-29T02:23:41.695Z,76.97
2019-05-29T02:26:12.474Z,75.66
2019-05-29T02:28:43.234Z,76.36
2019-05-29T02:31:14.016Z,75.67
2019-05-29T02:33:44.772Z,75.79
2019-05-29T02:36:15.648Z,76.96
2019-05-29T02:38:46.617Z,76.91
2019-05-29T02:41:19.141Z,77.56
2019-05-29T02:43:50.069Z,76.78
2019-05-29T02:46:21.748Z,76.67
2019-05-29T02:48:53.015Z,78.64
2019-05-29T02:51:24.321Z,79.07
2019-05-29T02:53:55.558Z,79.35
2019-05-29T02:56:26.990Z,78.78
2019-05-29T02:58:58.298Z,77.69
2019-05-29T03:01:29.744Z,77.90
2019-05-29T03:04:00.684Z,78.25
2019-05-29T03:06:32.334Z,78.05
2019-05-29T03:09:04.911Z,78.52
2019-05-29T03:11:35.792Z,77.70
2019-05-29T03:14:06.840Z,77.56
2019-05-29T03:16:37.622Z,77.36
2019-05-29T03:19:08.384Z,77.50
2019-05-29T03:21:39.158Z,77.41
2019-05-29T03:24:09.922Z,77.80
2019-05-29T03:26:40.710Z,78.09
2019-05-29T03:29:11.464Z,77.12
2019-05-29T03:31:47.206Z,77.56
2019-05-29T03:34:14.925Z,76.96
2019-05-29T03:36:48.295Z,75.73
2019-05-29T03:39:18.405Z,75.71
2019-05-29T03:41:49.179Z,75.69
2019-05-29T03:44:19.937Z,75.23
2019-05-29T03:46:50.725Z,75.50
2019-05-29T03:49:21.492Z,75.20
2019-05-29T03:51:52.257Z,76.05
2019-05-29T03:54:23.033Z,75.85
2019-05-29T03:56:53.823Z,76.01
2019-05-29T03:59:24.606Z,77.09
2019-05-29T04:01:55.400Z,76.66
2019-05-29T04:04:26.939Z,76.29
2019-05-29T04:06:57.850Z,75.64
2019-05-29T04:09:29.202Z,75.49
2019-05-29T04:12:00.124Z,75.29
2019-05-29T04:14:31.650Z,75.87
2019-05-29T04:17:02.665Z,76.29
2019-05-29T04:19:34.965Z,76.06
2019-05-29T04:22:10.553Z,76.12
2019-05-29T04:24:41.355Z,76.19
2019-05-29T04:27:13.006Z,76.02
2019-05-29T04:29:44.289Z,75.00
2019-05-29T04:32:15.087Z,74.89
2019-05-29T04:34:45.858Z,75.68
2019-05-29T04:37:16.658Z,75.43
2019-05-29T04:39:47.445Z,75.32
2019-05-29T04:42:18.237Z,75.58
2019-05-29T04:44:49.022Z,75.70
2019-05-29T04:47:19.805Z,76.01
2019-05-29T04:49:50.710Z,75.98
2019-05-29T04:52:21.568Z,75.52
2019-05-29T04:54:52.318Z,74.47
2019-05-29T04:57:23.102Z,75.78
2019-05-29T04:59:53.882Z,74.82
2019-05-29T05:02:24.712Z,75.25
2019-05-29T05:04:55.480Z,75.69
2019-05-29T05:07:26.244Z,75.75
2019-05-29T05:09:57.020Z,74.46
2019-05-29T05:12:27.780Z,75.80
2019-05-29T05:14:58.773Z,74.32
2019-05-29T05:17:29.751Z,74.54
2019-05-29T05:20:00.540Z,74.31
2019-05-29T05:22:32.055Z,74.04
2019-05-29T05:25:06.209Z,74.74
2019-05-29T05:27:36.992Z,73.64
2019-05-29T05:30:08.995Z,72.96
2019-05-29T05:32:41.100Z,73.29
2019-05-29T05:35:14.369Z,72.68
2019-05-29T05:37:44.814Z,72.59
2019-05-29T05:40:15.607Z,71.84
2019-05-29T05:42:46.426Z,72.56
2019-05-29T05:45:17.597Z,73.09
2019-05-29T05:47:56.817Z,72.23
2019-05-29T05:50:21.285Z,71.86
2019-05-29T05:52:52.063Z,72.23
2019-05-29T05:55:22.836Z,72.43
2019-05-29T05:57:53.599Z,71.63
2019-05-29T06:00:30.064Z,72.01
2019-05-29T06:03:01.027Z,70.63
2019-05-29T06:05:32.154Z,70.71
2019-05-29T06:08:03.187Z,70.53
2019-05-29T06:10:34.143Z,70.40
2019-05-29T06:13:04.940Z,70.15
2019-05-29T06:15:36.503Z,71.71
2019-05-29T06:18:20.629Z,71.56
2019-05-29T06:20:40.990Z,70.44
2019-05-29T06:23:11.839Z,70.68
2019-05-29T06:25:43.893Z,71.83
2019-05-29T06:28:14.875Z,70.72
2019-05-29T06:30:45.707Z,71.47
2019-05-29T06:33:16.461Z,72.10
2019-05-29T06:35:47.243Z,71.15
2019-05-29T06:38:18.017Z,72.10
2019-05-29T06:40:48.783Z,71.36
2019-05-29T06:43:23.618Z,69.74
2019-05-29T06:45:54.498Z,69.83
2019-05-29T06:48:57.649Z,69.99
2019-05-29T06:51:00.301Z,70.33
2019-05-29T06:53:31.067Z,70.18
2019-05-29T06:56:02.785Z,71.08
2019-05-29T06:58:34.038Z,69.54
2019-05-29T07:01:04.829Z,69.45
2019-05-29T07:03:35.702Z,69.58
2019-05-29T07:06:06.525Z,69.55
2019-05-29T07:08:42.374Z,70.05
2019-05-29T07:11:10.047Z,69.63
2019-05-29T07:13:43.262Z,69.28
2019-05-29T07:16:13.494Z,71.85
2019-05-29T07:19:20.636Z,69.76
2019-05-29T07:21:17.160Z,69.68
2019-05-29T07:23:48.770Z,68.38
2019-05-29T07:26:19.903Z,68.16
2019-05-29T07:29:07.320Z,68.67
2019-05-29T07:31:23.361Z,69.29
2019-05-29T07:33:54.161Z,69.66
2019-05-29T07:36:24.942Z,69.58
2019-05-29T07:39:02.995Z,69.39
2019-05-29T07:41:28.391Z,68.48
2019-05-29T07:43:59.171Z,68.62
2019-05-29T07:46:30.055Z,67.41
2019-05-29T07:49:00.816Z,68.03
2019-05-29T07:51:31.605Z,67.95
2019-05-29T07:54:02.382Z,68.22
2019-05-29T07:56:33.153Z,67.78
2019-05-29T07:59:04.051Z,68.41
2019-05-29T08:01:34.826Z,69.73
2019-05-29T08:04:05.604Z,67.97
2019-05-29T08:06:36.383Z,68.84
2019-05-29T08:09:07.171Z,69.17
2019-05-29T08:11:39.384Z,67.44
2019-05-29T08:14:10.317Z,68.67
2019-05-29T08:16:41.915Z,69.96
2019-05-29T08:19:12.917Z,70.12
2019-05-29T08:21:44.296Z,70.32
2019-05-29T08:24:15.176Z,71.28
2019-05-29T08:26:46.825Z,70.93
2019-05-29T08:29:17.735Z,70.78
2019-05-29T08:31:48.975Z,69.87
2019-05-29T08:34:19.888Z,71.28
2019-05-29T08:37:05.945Z,69.37
2019-05-29T08:39:35.523Z,69.88
2019-05-29T08:42:21.218Z,70.85
2019-05-29T08:44:28.878Z,71.52
2019-05-29T08:47:09.716Z,71.30
2019-05-29T08:49:32.352Z,71.60
2019-05-29T08:52:11.713Z,70.82
2019-05-29T08:54:35.919Z,70.68
2019-05-29T08:57:06.698Z,71.65
2019-05-29T08:59:37.455Z,71.49
2019-05-29T09:02:08.240Z,71.10
2019-05-29T09:04:39.203Z,71.03
2019-05-29T09:07:10.026Z,70.94
2019-05-29T09:09:40.787Z,70.29
2019-05-29T09:12:11.565Z,69.27
2019-05-29T09:14:42.347Z,69.87
2019-05-29T09:17:14.619Z,69.19
2019-05-29T09:19:45.481Z,69.44
2019-05-29T09:22:16.520Z,68.78
2019-05-29T09:24:47.329Z,69.69
2019-05-29T09:27:19.126Z,69.91
2019-05-29T09:29:50.068Z,71.28
2019-05-29T09:32:46.470Z,70.34
2019-05-29T09:34:53.561Z,69.80
2019-05-29T09:37:24.636Z,68.52
2019-05-29T09:39:55.511Z,67.84
2019-05-29T09:42:26.281Z,66.01
2019-05-29T09:44:57.055Z,65.43
2019-05-29T09:47:27.835Z,66.64
2019-05-29T09:49:58.599Z,65.37
2019-05-29T09:52:30.790Z,66.89
2019-05-29T09:55:03.483Z,66.25
2019-05-29T09:57:34.261Z,66.38
2019-05-29T10:00:08.937Z,65.78
2019-05-29T10:02:39.704Z,64.08
2019-05-29T10:05:10.576Z,62.65
2019-05-29T10:07:41.352Z,63.01
2019-05-29T10:10:12.911Z,63.66
2019-05-29T10:12:43.699Z,63.24
2019-05-29T10:15:15.103Z,64.55
2019-05-29T10:17:46.075Z,62.34
2019-05-29T10:20:17.236Z,63.62
2019-05-29T10:22:48.014Z,63.72
2019-05-29T10:25:19.178Z,63.25
2019-05-29T10:27:49.895Z,64.34
2019-05-29T10:30:22.674Z,62.84
2019-05-29T10:32:53.605Z,62.24
2019-05-29T10:35:24.419Z,61.15
2019-05-29T10:37:55.194Z,61.92
2019-05-29T10:40:25.960Z,63.70
2019-05-29T10:42:56.766Z,60.46
2019-05-29T10:45:27.509Z,61.73
2019-05-29T10:47:58.282Z,59.00
2019-05-29T10:50:29.069Z,60.15
2019-05-29T10:52:59.839Z,60.14
2019-05-29T10:55:30.629Z,61.77
2019-05-29T10:58:01.408Z,60.81
2019-05-29T11:00:32.183Z,60.18
2019-05-29T11:03:03.373Z,60.97
2019-05-29T11:05:34.148Z,59.54
2019-05-29T11:08:04.926Z,60.59
2019-05-29T11:10:35.704Z,61.32
2019-05-29T11:13:06.486Z,60.39
2019-05-29T11:15:37.246Z,62.32
2019-05-29T11:18:08.042Z,63.10
2019-05-29T11:20:38.823Z,62.81
2019-05-29T11:23:09.605Z,62.26
2019-05-29T11:25:40.980Z,61.00
2019-05-29T11:28:11.767Z,61.37
2019-05-29T11:30:42.559Z,63.28
2019-05-29T11:33:13.337Z,61.11
2019-05-29T11:35:58.561Z,59.10
2019-05-29T11:38:16.795Z,60.01
2019-05-29T11:40:47.746Z,60.01
2019-05-29T11:43:18.604Z,60.09
2019-05-29T11:45:51.112Z,59.81
2019-05-29T11:48:22.077Z,62.89
2019-05-29T11:50:54.102Z,62.89
2019-05-29T11:53:25.049Z,62.43
2019-05-29T11:55:56.130Z,62.15
2019-05-29T11:58:31.263Z,61.25
2019-05-29T12:00:59.676Z,61.05
2019-05-29T12:03:30.457Z,62.00
2019-05-29T12:06:03.142Z,62.95
2019-05-29T12:08:33.919Z,61.50
2019-05-29T12:11:07.009Z,61.37
2019-05-29T12:13:37.391Z,63.40
2019-05-29T12:16:08.152Z,62.86
2019-05-29T12:18:38.940Z,60.67
2019-05-29T12:21:09.704Z,60.67
2019-05-29T12:23:40.481Z,62.37
2019-05-29T12:26:21.849Z,63.47
2019-05-29T12:28:44.017Z,62.66
2019-05-29T12:31:14.833Z,61.99
2019-05-29T12:33:45.604Z,59.41
2019-05-29T12:36:16.374Z,60.51
2019-05-29T12:38:47.152Z,56.95
2019-05-29T12:41:18.178Z,57.75
2019-05-29T12:43:48.980Z,58.69
2019-05-29T12:46:19.751Z,58.69
2019-05-29T12:48:50.524Z,60.90
2019-05-29T12:51:21.290Z,59.95
2019-05-29T12:53:53.737Z,60.01
2019-05-29T12:56:24.704Z,60.56
2019-05-29T12:58:56.076Z,60.22
2019-05-29T13:01:26.966Z,61.69
2019-05-29T13:03:58.625Z,62.77
2019-05-29T13:06:29.566Z,62.28
2019-05-29T13:09:00.535Z,62.70
2019-05-29T13:11:31.437Z,61.14
2019-05-29T13:14:02.739Z,62.18
2019-05-29T13:16:33.589Z,59.10
2019-05-29T13:19:05.383Z,59.10
2019-05-29T13:21:36.350Z,60.46
2019-05-29T13:24:11.236Z,60.46
2019-05-29T13:26:39.805Z,60.17
2019-05-29T13:29:10.593Z,60.17
2019-05-29T13:31:41.365Z,59.73
2019-05-29T13:34:12.138Z,60.14
2019-05-29T13:36:43.011Z,59.83
2019-05-29T13:39:13.936Z,59.99
2019-05-29T13:41:44.731Z,58.73
2019-05-29T13:44:15.520Z,59.24
2019-05-29T13:46:46.286Z,57.80
2019-05-29T13:49:17.079Z,59.44
2019-05-29T13:51:47.855Z,59.44
2019-05-29T13:54:18.727Z,57.22
2019-05-29T13:56:49.551Z,58.86
2019-05-29T13:59:20.313Z,59.18
2019-05-29T14:01:51.087Z,60.46
2019-05-29T14:04:21.884Z,60.01
2019-05-29T14:06:53.198Z,60.25
2019-05-29T14:09:24.404Z,60.26
2019-05-29T14:11:55.287Z,57.10
2019-05-29T14:14:26.071Z,57.10
2019-05-29T14:16:56.836Z,56.86
2019-05-29T14:19:27.608Z,56.45
2019-05-29T14:21:58.438Z,59.67
2019-05-29T14:24:30.389Z,60.69
2019-05-29T14:27:01.693Z,60.02
2019-05-29T14:29:32.677Z,60.02
2019-05-29T14:32:04.911Z,58.28
2019-05-29T14:34:35.888Z,60.73
2019-05-29T14:37:07.938Z,60.44
2019-05-29T14:39:38.844Z,61.02
2019-05-29T14:42:10.159Z,61.39
2019-05-29T14:44:40.999Z,60.48
2019-05-29T14:47:13.286Z,61.18
2019-05-29T14:49:44.280Z,60.75
2019-05-29T14:52:15.049Z,59.36
2019-05-29T14:54:45.843Z,60.23
2019-05-29T14:57:24.782Z,59.94
2019-05-29T14:59:49.471Z,61.29
2019-05-29T15:02:23.940Z,63.04
2019-05-29T15:04:53.110Z,61.00
2019-05-29T15:07:23.925Z,60.54
2019-05-29T15:09:54.759Z,62.15
2019-05-29T15:12:25.523Z,61.52
2019-05-29T15:14:56.297Z,62.46
2019-05-29T15:17:27.072Z,61.77
2019-05-29T15:19:57.862Z,62.49
2019-05-29T15:22:28.642Z,60.84
2019-05-29T15:25:10.683Z,61.46
2019-05-29T15:27:32.427Z,60.65
2019-05-29T15:30:06.146Z,59.58
2019-05-29T15:32:37.083Z,59.35
2019-05-29T15:35:12.776Z,61.19
2019-05-29T15:37:40.888Z,60.66
2019-05-29T15:40:13.178Z,60.61
2019-05-29T15:42:43.992Z,60.62
2019-05-29T15:45:15.965Z,60.96
2019-05-29T15:47:46.862Z,61.23
2019-05-29T15:50:18.263Z,60.07
2019-05-29T15:52:49.015Z,60.55
2019-05-29T15:55:29.721Z,59.54
2019-05-29T15:57:52.463Z,59.66
2019-05-29T16:00:23.549Z,60.42
2019-05-29T16:02:54.304Z,60.38
2019-05-29T16:05:25.076Z,61.21
2019-05-29T16:07:55.840Z,59.36
2019-05-29T16:10:26.626Z,58.39
2019-05-29T16:12:57.402Z,60.89
2019-05-29T16:15:28.176Z,60.29
2019-05-29T16:17:58.940Z,60.23
2019-05-29T16:20:29.736Z,58.21
2019-05-29T16:23:00.501Z,58.21
2019-05-29T16:25:40.180Z,59.82
2019-05-29T16:28:03.946Z,58.31
2019-05-29T16:30:34.731Z,57.74
2019-05-29T16:33:05.493Z,59.93
2019-05-29T16:35:37.612Z,56.51
2019-05-29T16:38:08.662Z,57.58
2019-05-29T16:40:39.443Z,57.98
2019-05-29T16:43:10.206Z,57.87
2019-05-29T16:45:40.999Z,60.56
2019-05-29T16:48:12.958Z,57.45
2019-05-29T16:50:43.787Z,58.07
2019-05-29T16:53:14.748Z,57.05
2019-05-29T16:55:53.677Z,55.52
2019-05-29T16:58:19.751Z,56.74
2019-05-29T17:00:50.647Z,56.74
2019-05-29T17:03:21.727Z,55.00
2019-05-29T17:05:52.599Z,57.59
2019-05-29T17:08:24.625Z,57.59
2019-05-29T17:10:55.560Z,58.03
2019-05-29T17:13:26.338Z,55.48
2019-05-29T17:15:57.114Z,57.08
2019-05-29T17:18:27.875Z,56.52
2019-05-29T17:20:58.660Z,55.11
2019-05-29T17:23:29.528Z,54.73
2019-05-29T17:26:10.115Z,56.69
2019-05-29T17:28:33.028Z,59.10
2019-05-29T17:31:03.886Z,59.01
2019-05-29T17:33:34.649Z,58.46
2019-05-29T17:36:05.436Z,55.99
2019-05-29T17:38:36.198Z,56.90
2019-05-29T17:41:06.987Z,56.78
2019-05-29T17:43:37.759Z,56.19
2019-05-29T17:46:08.534Z,58.41
2019-05-29T17:48:39.295Z,56.94
2019-05-29T17:51:10.110Z,59.74
2019-05-29T17:53:40.913Z,59.91
2019-05-29T17:56:25.290Z,56.89
2019-05-29T17:58:44.720Z,57.31
2019-05-29T18:01:16.141Z,57.73
2019-05-29T18:03:47.009Z,58.71
2019-05-29T18:06:18.333Z,58.71
2019-05-29T18:08:49.194Z,61.07
2019-05-29T18:11:21.090Z,61.07
2019-05-29T18:13:52.106Z,59.47
2019-05-29T18:16:23.548Z,60.75
2019-05-29T18:18:54.517Z,61.20
2019-05-29T18:21:25.780Z,60.71
2019-05-29T18:23:56.696Z,60.95
2019-05-29T18:26:42.625Z,59.99
2019-05-29T18:29:00.175Z,61.04
2019-05-29T18:31:30.959Z,59.57
2019-05-29T18:34:01.715Z,61.75
2019-05-29T18:36:32.496Z,59.57
2019-05-29T18:39:05.860Z,58.55
2019-05-29T18:41:36.642Z,62.21
2019-05-29T18:44:07.410Z,62.71
2019-05-29T18:46:38.352Z,58.03
2019-05-29T18:49:09.147Z,59.18
2019-05-29T18:51:39.928Z,61.59
2019-05-29T18:54:10.704Z,59.82
2019-05-29T18:56:41.525Z,60.54
2019-05-29T18:59:12.288Z,61.36
2019-05-29T19:01:43.084Z,61.62
2019-05-29T19:04:13.853Z,59.60
2019-05-29T19:06:44.640Z,62.14
2019-05-29T19:09:15.517Z,64.36
2019-05-29T19:11:46.308Z,64.31
2019-05-29T19:14:17.075Z,62.60
2019-05-29T19:16:47.863Z,61.91
2019-05-29T19:19:18.642Z,63.27
2019-05-29T19:21:49.421Z,62.92
2019-05-29T19:24:20.184Z,63.09
2019-05-29T19:26:50.967Z,63.59
2019-05-29T19:29:22.961Z,61.05
2019-05-29T19:31:53.827Z,60.87
2019-05-29T19:34:25.237Z,60.86
2019-05-29T19:36:56.095Z,62.75
2019-05-29T19:39:27.994Z,62.51
2019-05-29T19:41:58.860Z,64.22
2019-05-29T19:44:30.381Z,65.00
2019-05-29T19:47:01.353Z,61.98
2019-05-29T19:49:35.189Z,62.68
2019-05-29T19:52:06.173Z,63.18
2019-05-29T19:54:36.973Z,64.79
2019-05-29T19:57:08.136Z,63.26
2019-05-29T19:59:38.899Z,63.65
2019-05-29T20:02:09.676Z,62.63
2019-05-29T20:04:40.450Z,63.95
2019-05-29T20:07:11.232Z,63.10
2019-05-29T20:09:42.002Z,64.20
2019-05-29T20:12:12.802Z,63.02
2019-05-29T20:14:43.540Z,62.99
2019-05-29T20:17:14.345Z,63.57
2019-05-29T20:19:45.115Z,65.20
2019-05-29T20:22:15.890Z,65.01
2019-05-29T20:24:46.673Z,65.14
2019-05-29T20:27:17.439Z,65.43
2019-05-29T20:29:48.197Z,65.58
2019-05-29T20:32:18.987Z,63.42
2019-05-29T20:34:49.756Z,65.90
2019-05-29T20:37:20.544Z,66.42
2019-05-29T20:39:51.337Z,64.84
2019-05-29T20:42:22.095Z,65.35
2019-05-29T20:44:52.861Z,65.08
2019-05-29T20:47:23.641Z,64.91
2019-05-29T20:49:54.420Z,66.47
2019-05-29T20:52:25.267Z,66.33
2019-05-29T20:54:58.634Z,66.82
2019-05-29T20:57:28.754Z,66.61
2019-05-29T20:59:59.534Z,66.46
2019-05-29T21:02:30.313Z,67.65
2019-05-29T21:05:02.082Z,67.16
2019-05-29T21:07:32.928Z,66.32
2019-05-29T21:10:04.490Z,68.83
2019-05-29T21:12:35.282Z,66.54
2019-05-29T21:15:06.376Z,67.66
2019-05-29T21:17:37.871Z,69.15
2019-05-29T21:20:08.983Z,68.10
2019-05-29T21:22:40.652Z,68.68
2019-05-29T21:25:17.178Z,69.31
2019-05-29T21:27:49.696Z,69.43
2019-05-29T21:30:22.702Z,68.09
2019-05-29T21:32:54.393Z,67.76
2019-05-29T21:35:25.248Z,68.71
2019-05-29T21:37:56.027Z,67.93
2019-05-29T21:40:26.797Z,66.80
2019-05-29T21:42:57.579Z,68.81
2019-05-29T21:45:31.513Z,68.68
2019-05-29T21:48:02.398Z,68.73
2019-05-29T21:50:33.195Z,69.43
2019-05-29T21:53:06.044Z,67.52
2019-05-29T21:55:37.536Z,67.55
2019-05-29T21:58:08.512Z,67.74
2019-05-29T22:00:42.263Z,68.60
2019-05-29T22:03:13.261Z,68.11
2019-05-29T22:05:44.739Z,68.43
2019-05-29T22:08:15.728Z,67.72
2019-05-29T22:10:46.499Z,68.27
2019-05-29T22:13:17.273Z,68.51
2019-05-29T22:15:48.068Z,68.15
2019-05-29T22:18:18.835Z,68.29
2019-05-29T22:20:50.953Z,64.83
2019-05-29T22:23:21.925Z,66.79
2019-05-29T22:25:53.166Z,66.52
2019-05-29T22:28:24.087Z,66.10
2019-05-29T22:30:55.344Z,64.57
2019-05-29T22:33:26.130Z,66.97
2019-05-29T22:35:57.495Z,65.23
2019-05-29T22:38:28.378Z,67.95
2019-05-29T22:40:59.692Z,69.06
2019-05-29T22:43:30.548Z,67.27
2019-05-29T22:46:01.878Z,70.19
2019-05-29T22:48:32.742Z,69.69
2019-05-29T22:51:03.614Z,69.43
2019-05-29T22:53:34.450Z,69.00
2019-05-29T22:56:05.225Z,67.71
2019-05-29T22:58:36.000Z,67.22
2019-05-29T23:01:06.811Z,67.55
2019-05-29T23:03:37.582Z,69.55
2019-05-29T23:06:08.353Z,68.95
2019-05-29T23:08:39.140Z,67.28
2019-05-29T23:11:09.916Z,67.60
2019-05-29T23:13:40.699Z,66.71
2019-05-29T23:16:11.473Z,68.56
2019-05-29T23:18:42.246Z,67.35
2019-05-29T23:21:13.023Z,67.09
2019-05-29T23:23:43.795Z,68.67
2019-05-29T23:26:14.563Z,68.50
2019-05-29T23:28:45.330Z,69.71
2019-05-29T23:31:16.250Z,70.48
2019-05-29T23:33:47.009Z,69.75
2019-05-29T23:36:17.808Z,69.86
2019-05-29T23:38:49.384Z,69.06
2019-05-29T23:41:20.171Z,70.09
2019-05-29T23:43:50.947Z,70.44
2019-05-29T23:46:21.725Z,71.31
2019-05-29T23:48:53.507Z,71.20
2019-05-29T23:51:24.279Z,71.36
2019-05-29T23:53:55.633Z,71.49
2019-05-29T23:56:26.578Z,72.13
2019-05-29T23:58:57.748Z,72.21
